Time;durP1;ratioP1;P1;durP2;ratioP2;P2;SDS_P1;SDS_P2;PMS_P1;PMS_P2;Temp;Humidity;BMP_temperature;BMP_pressure;BME280_temperature;BME280_humidity;BME280_pressure;Samples;Min_cycle;Max_cycle;Signal;HPM_P1;HPM_P2
2022/03/13 00:00:40;;;;;;;19.95;14.00;;;;;;;9.86;60.03;101510.59;4935963;28;20034;-78
2022/03/13 00:03:10;;;;;;;19.40;12.65;;;;;;;9.69;60.31;101486.47;4936202;29;20043;-78
2022/03/13 00:05:40;;;;;;;17.55;11.65;;;;;;;9.84;60.09;101513.28;4936427;28;20497;-78
2022/03/13 00:08:18;;;;;;;18.73;11.93;;;;;;;9.63;60.18;101478.19;4936351;29;20428;-79
2022/03/13 00:10:46;;;;;;;17.08;11.48;;;;;;;9.64;60.22;101485.88;4936148;29;20023;-79
2022/03/13 00:13:14;;;;;;;20.08;11.55;;;;;;;9.75;60.22;101501.66;4936191;29;20038;-84
2022/03/13 00:15:49;;;;;;;18.98;12.27;;;;;;;9.76;60.11;101502.47;4936302;29;20375;-79
2022/03/13 00:18:14;;;;;;;19.85;12.07;;;;;;;9.60;60.62;101478.34;4936010;29;20032;-83
2022/03/13 00:20:40;;;;;;;19.00;11.63;;;;;;;9.81;60.87;101512.56;4936458;28;20059;-82
2022/03/13 00:23:06;;;;;;;18.40;11.88;;;;;;;9.77;60.71;101509.31;4936143;29;20027;-84
2022/03/13 00:25:32;;;;;;;19.60;12.18;;;;;;;9.76;61.25;101510.22;4936660;28;20376;-80
2022/03/13 00:27:57;;;;;;;23.52;12.52;;;;;;;9.76;60.91;101510.22;4936038;29;20034;-81
2022/03/13 00:30:23;;;;;;;20.30;11.90;;;;;;;9.70;61.09;101500.19;4935803;29;20465;-81
2022/03/13 00:32:49;;;;;;;19.40;11.70;;;;;;;9.58;61.71;101482.75;4935792;28;20020;-83
2022/03/13 00:35:14;;;;;;;17.70;11.55;;;;;;;9.63;61.53;101499.66;4935808;28;20024;-84
2022/03/13 00:37:39;;;;;;;19.27;12.98;;;;;;;9.48;61.31;101480.59;4935940;29;20091;-82
2022/03/13 00:40:05;;;;;;;19.00;12.55;;;;;;;9.63;61.57;101497.06;4935879;28;20027;-83
2022/03/13 00:42:34;;;;;;;20.20;12.65;;;;;;;9.59;61.19;101487.00;4936086;29;20440;-80
2022/03/13 00:45:00;;;;;;;17.40;11.68;;;;;;;9.21;61.17;101412.31;4935632;29;20032;-79
2022/03/13 00:47:25;;;;;;;19.85;12.77;;;;;;;9.64;61.14;101485.88;4935556;28;20038;-82
2022/03/13 00:49:51;;;;;;;19.02;12.82;;;;;;;9.46;61.11;101451.50;4935938;28;20032;-84
2022/03/13 00:52:17;;;;;;;18.48;12.20;;;;;;;9.65;61.29;101476.38;4935837;28;20032;-83
2022/03/13 00:54:43;;;;;;;18.42;12.02;;;;;;;9.64;60.98;101482.47;4935747;28;20027;-84
2022/03/13 00:57:09;;;;;;;17.95;11.65;;;;;;;9.62;61.20;101479.94;4935317;28;20119;-82
2022/03/13 00:59:34;;;;;;;19.60;11.85;;;;;;;9.52;61.12;101462.41;4935477;28;20111;-85
2022/03/13 01:02:00;;;;;;;18.67;12.35;;;;;;;9.58;61.33;101475.00;4935477;29;20062;-83
2022/03/13 01:04:25;;;;;;;20.85;12.40;;;;;;;9.46;61.68;101468.72;4935518;29;20098;-82
2022/03/13 01:06:51;;;;;;;18.85;12.35;;;;;;;9.42;61.69;101465.41;4935622;28;20487;-84
2022/03/13 01:09:17;;;;;;;20.23;12.38;;;;;;;9.38;61.94;101471.63;4935513;28;20043;-84
2022/03/13 01:11:42;;;;;;;20.65;12.73;;;;;;;9.30;62.17;101467.75;4935342;28;20039;-82
2022/03/13 01:14:09;;;;;;;21.67;12.98;;;;;;;9.26;62.20;101468.81;4935342;28;20035;-84
2022/03/13 01:16:36;;;;;;;17.98;12.05;;;;;;;9.22;62.57;101469.84;4935494;28;20034;-85
2022/03/13 01:19:03;;;;;;;21.23;13.55;;;;;;;9.10;62.57;101450.66;4935340;29;20469;-82
2022/03/13 01:21:31;;;;;;;19.40;12.57;;;;;;;9.15;62.62;101462.44;4935404;28;20059;-83
2022/03/13 01:24:00;;;;;;;20.63;12.18;;;;;;;9.11;63.27;101457.47;4935448;28;20053;-84
2022/03/13 01:26:25;;;;;;;20.55;12.40;;;;;;;9.06;63.30;101454.28;4935110;29;20031;-84
2022/03/13 01:28:58;;;;;;;20.77;12.75;;;;;;;8.98;63.37;101446.91;4935168;28;20024;-84
2022/03/13 01:31:36;;;;;;;19.33;12.25;;;;;;;8.90;63.76;101441.28;4935271;29;20028;-84
2022/03/13 01:34:02;;;;;;;19.65;12.40;;;;;;;8.87;63.77;101442.25;4935393;28;20039;-82
2022/03/13 01:36:28;;;;;;;21.27;12.95;;;;;;;8.78;64.21;101440.09;4935155;28;20059;-82
2022/03/13 01:38:59;;;;;;;18.90;12.90;;;;;;;8.59;64.77;101414.34;4935412;29;20039;-85
2022/03/13 01:41:28;;;;;;;21.63;13.03;;;;;;;8.55;64.93;101414.53;4935045;28;20114;-85
2022/03/13 01:43:55;;;;;;;19.55;12.70;;;;;;;8.47;65.02;101412.34;4935009;29;20283;-82
2022/03/13 01:46:20;;;;;;;21.02;12.30;;;;;;;8.29;65.50;101390.78;4934972;28;20473;-82
2022/03/13 01:48:56;;;;;;;18.38;12.02;;;;;;;8.49;65.47;101427.72;4935135;29;20098;-83
2022/03/13 01:51:22;;;;;;;18.63;12.70;;;;;;;8.20;65.69;101385.22;4935189;28;20042;-79
2022/03/13 01:53:51;;;;;;;21.08;12.93;;;;;;;8.39;66.00;101414.41;4935123;28;20027;-83
2022/03/13 01:56:17;;;;;;;21.05;13.38;;;;;;;8.31;66.06;101412.16;4934922;28;20448;-83
2022/03/13 01:58:42;;;;;;;18.75;12.38;;;;;;;8.17;66.38;101396.50;4934933;29;20044;-78
2022/03/13 02:01:08;;;;;;;19.33;11.75;;;;;;;8.20;66.95;101401.50;4934877;29;20106;-80
2022/03/13 02:03:33;;;;;;;20.35;12.15;;;;;;;8.09;67.30;101395.97;4935200;29;20031;-78
2022/03/13 02:05:59;;;;;;;22.45;12.23;;;;;;;8.17;67.25;101413.66;4965743;28;20462;-80
2022/03/13 02:08:24;;;;;;;20.63;12.13;;;;;;;8.14;67.44;101414.59;4934979;29;20036;-83
2022/03/13 02:10:50;;;;;;;18.00;11.70;;;;;;;8.13;67.29;101394.94;4934978;29;20035;-83
2022/03/13 02:13:18;;;;;;;20.13;12.18;;;;;;;8.14;67.64;101401.75;4934699;29;20032;-84
2022/03/13 02:15:44;;;;;;;18.88;11.68;;;;;;;7.96;67.69;101367.41;4934788;28;20027;-84
2022/03/13 02:18:10;;;;;;;17.27;10.90;;;;;;;8.03;67.56;101384.22;4935074;28;20051;-83
2022/03/13 02:20:42;;;;;;;19.17;11.05;;;;;;;8.14;67.94;101398.34;4934902;29;20087;-84
2022/03/13 02:23:25;;;;;;;17.35;10.25;;;;;;;8.19;67.45;101399.81;4937425;28;20049;-81
2022/03/13 02:25:53;;;;;;;16.42;11.00;;;;;;;8.09;68.11;101380.56;4938144;28;20461;-83
2022/03/13 02:28:23;;;;;;;18.45;11.20;;;;;;;8.21;67.93;101403.16;4952763;28;20028;-78
2022/03/13 02:30:50;;;;;;;19.13;11.63;;;;;;;8.05;68.08;101361.81;4938309;29;20393;-81
2022/03/13 02:33:18;;;;;;;17.98;11.50;;;;;;;8.26;67.77;101396.09;4938232;29;20035;-81
2022/03/13 02:35:52;;;;;;;16.95;11.77;;;;;;;8.04;67.76;101361.91;4937992;28;20111;-79
2022/03/13 02:38:18;;;;;;;18.23;11.75;;;;;;;8.24;67.95;101395.28;4938051;29;20432;-77
2022/03/13 02:40:44;;;;;;;20.90;13.13;;;;;;;8.15;67.71;101377.69;4937748;28;20086;-78
2022/03/13 02:43:09;;;;;;;21.17;13.10;;;;;;;8.13;67.77;101384.66;4937702;29;20083;-78
2022/03/13 02:45:37;;;;;;;22.13;13.30;;;;;;;8.16;68.12;101397.41;4938037;29;20019;-78
2022/03/13 02:48:05;;;;;;;25.08;14.65;;;;;;;8.03;68.33;101396.25;4937818;29;20079;-79
2022/03/13 02:50:31;;;;;;;23.58;14.30;;;;;;;7.69;68.80;101332.59;4937661;28;20035;-78
2022/03/13 02:52:56;;;;;;;24.15;14.35;;;;;;;8.09;69.12;101395.16;4937627;29;20020;-78
2022/03/13 02:55:22;;;;;;;21.55;13.95;;;;;;;8.07;68.77;101387.50;4937779;29;20111;-78
2022/03/13 02:57:48;;;;;;;21.67;13.70;;;;;;;7.89;69.08;101368.56;4937308;29;20075;-79
2022/03/13 03:00:15;;;;;;;23.52;14.18;;;;;;;7.90;69.31;101375.38;4937676;29;20350;-79
2022/03/13 03:02:40;;;;;;;20.77;13.60;;;;;;;7.90;69.51;101375.38;4937771;28;20035;-79
2022/03/13 03:05:07;;;;;;;20.10;14.23;;;;;;;7.95;69.56;101383.69;4938010;29;20023;-79
2022/03/13 03:07:34;;;;;;;22.40;14.32;;;;;;;7.94;69.90;101382.03;4937419;28;20031;-79
2022/03/13 03:10:00;;;;;;;23.17;14.95;;;;;;;7.94;70.14;101376.06;4937411;28;20020;-78
2022/03/13 03:12:25;;;;;;;24.15;14.95;;;;;;;7.94;70.33;101394.06;4937156;28;20032;-78
2022/03/13 03:14:50;;;;;;;23.95;15.15;;;;;;;7.73;70.39;101350.38;4937557;29;20388;-78
2022/03/13 03:17:16;;;;;;;24.58;14.93;;;;;;;7.94;70.37;101384.59;4937440;28;20023;-79
2022/03/13 03:19:42;;;;;;;23.52;14.75;;;;;;;7.95;70.49;101380.28;4937195;28;20020;-85
2022/03/13 03:22:07;;;;;;;23.55;15.25;;;;;;;7.92;70.84;101370.97;4937508;28;20051;-84
2022/03/13 03:24:33;;;;;;;23.55;15.35;;;;;;;7.86;70.89;101360.94;4937323;29;20031;-84
2022/03/13 03:26:59;;;;;;;24.65;15.23;;;;;;;8.01;70.65;101370.59;4937224;29;20090;-83
2022/03/13 03:29:26;;;;;;;26.48;15.57;;;;;;;8.01;71.56;101375.72;4936890;29;20023;-85
2022/03/13 03:31:51;;;;;;;26.52;16.33;;;;;;;8.04;71.66;101375.59;4937163;29;20027;-84
2022/03/13 03:34:20;;;;;;;25.17;15.77;;;;;;;8.02;72.04;101366.28;4935786;29;20384;-84
2022/03/13 03:36:56;;;;;;;25.50;16.20;;;;;;;8.07;72.04;101374.66;4936850;28;20110;-83
2022/03/13 03:39:23;;;;;;;24.48;15.48;;;;;;;7.92;71.96;101345.28;4967866;28;20110;-85
2022/03/13 03:41:50;;;;;;;28.08;17.10;;;;;;;7.99;72.98;101364.69;4936614;28;20118;-84
2022/03/13 03:44:16;;;;;;;28.30;17.40;;;;;;;7.96;72.71;101367.41;4936669;29;20111;-82
2022/03/13 03:46:43;;;;;;;27.00;17.38;;;;;;;8.02;73.78;101377.41;4936636;28;20111;-84
2022/03/13 03:49:09;;;;;;;26.27;17.25;;;;;;;7.69;74.43;101325.72;4936486;28;20028;-83
2022/03/13 03:51:35;;;;;;;27.25;17.95;;;;;;;7.90;73.53;101354.78;4936909;28;20046;-83
2022/03/13 03:54:02;;;;;;;27.42;16.55;;;;;;;7.95;73.90;101357.97;4936494;28;20492;-78
2022/03/13 03:56:27;;;;;;;29.00;18.48;;;;;;;8.07;73.91;101371.25;4936218;28;20036;-78
2022/03/13 03:58:53;;;;;;;27.60;17.95;;;;;;;7.80;74.08;101330.38;4936545;29;20028;-79
2022/03/13 04:01:18;;;;;;;26.38;18.52;;;;;;;8.00;73.76;101368.91;4936562;28;20039;-82
2022/03/13 04:03:44;;;;;;;27.30;18.17;;;;;;;8.09;72.85;101379.72;4936172;28;20547;-83
2022/03/13 04:06:09;;;;;;;29.65;19.50;;;;;;;7.99;73.33;101362.13;4936465;28;20032;-79
2022/03/13 04:08:34;;;;;;;27.17;18.00;;;;;;;7.80;73.30;101324.41;4936488;28;20023;-84
2022/03/13 04:11:00;;;;;;;27.90;18.25;;;;;;;8.07;73.29;101364.34;4936272;28;20027;-79
2022/03/13 04:13:26;;;;;;;30.92;20.08;;;;;;;8.08;72.25;101366.03;4935954;28;20039;-83
2022/03/13 04:15:52;;;;;;;32.03;19.55;;;;;;;7.89;72.58;101327.41;4936156;29;20027;-84
2022/03/13 04:18:20;;;;;;;32.95;20.95;;;;;;;8.08;73.15;101366.03;4936067;28;20046;-81
2022/03/13 04:20:45;;;;;;;33.70;20.73;;;;;;;8.09;72.93;101367.69;4936103;29;20476;-78
2022/03/13 04:23:11;;;;;;;30.02;20.77;;;;;;;8.07;72.82;101360.94;4936068;29;20145;-83
2022/03/13 04:25:37;;;;;;;31.83;21.63;;;;;;;7.83;72.66;101322.53;4936191;29;20055;-78
2022/03/13 04:28:04;;;;;;;37.70;24.23;;;;;;;8.05;72.42;101359.25;4935828;28;20038;-85
2022/03/13 04:30:30;;;;;;;37.03;24.77;;;;;;;8.07;72.56;101361.78;4936174;28;20039;-83
2022/03/13 04:32:56;;;;;;;43.83;29.67;;;;;;;7.88;72.20;101332.63;4936158;28;20112;-85
2022/03/13 04:35:22;;;;;;;48.10;32.45;;;;;;;8.08;72.09;101357.47;4935979;28;20028;-84
2022/03/13 04:37:47;;;;;;;49.28;33.03;;;;;;;8.05;72.05;101361.00;4936070;29;20031;-84
2022/03/13 04:40:15;;;;;;;52.28;35.85;;;;;;;8.07;71.50;101366.94;4935904;29;20392;-84
2022/03/13 04:42:40;;;;;;;48.25;34.78;;;;;;;8.08;71.27;101367.75;4935821;29;20024;-81
2022/03/13 04:45:06;;;;;;;47.17;31.30;;;;;;;7.84;71.18;101328.50;4935415;29;20111;-84
2022/03/13 04:47:32;;;;;;;49.22;32.92;;;;;;;8.08;71.27;101370.34;4935753;28;20059;-84
2022/03/13 04:49:59;;;;;;;43.17;29.10;;;;;;;7.98;71.50;101351.91;4935863;29;20059;-84
2022/03/13 04:52:25;;;;;;;43.03;28.45;;;;;;;7.90;71.66;101346.25;4935796;28;20039;-85
2022/03/13 04:54:51;;;;;;;40.05;24.88;;;;;;;8.03;71.50;101373.09;4935772;29;20032;-85
2022/03/13 04:57:17;;;;;;;35.72;25.23;;;;;;;7.89;72.05;101353.13;4935377;29;20120;-84
2022/03/13 04:59:42;;;;;;;34.47;22.42;;;;;;;7.91;71.57;101363.34;4935472;28;20039;-84
2022/03/13 05:02:10;;;;;;;37.13;22.27;;;;;;;7.97;71.91;101365.66;4935777;29;20043;-85
2022/03/13 05:04:35;;;;;;;33.83;21.13;;;;;;;7.93;72.35;101362.38;4935430;29;20540;-80
2022/03/13 05:07:01;;;;;;;36.95;22.35;;;;;;;7.90;73.34;101357.38;4935631;29;20099;-85
2022/03/13 05:09:27;;;;;;;34.15;21.48;;;;;;;7.81;72.46;101350.03;4935564;28;20028;-82
2022/03/13 05:11:53;;;;;;;34.80;21.08;;;;;;;7.60;73.05;101318.38;4935469;28;20123;-85
2022/03/13 05:14:19;;;;;;;35.20;21.00;;;;;;;7.61;72.51;101317.47;4935217;29;20032;-84
2022/03/13 05:16:44;;;;;;;30.75;19.50;;;;;;;7.74;72.79;101348.63;4935287;29;20028;-83
2022/03/13 05:19:10;;;;;;;33.97;21.33;;;;;;;7.69;72.94;101348.84;4935593;28;20032;-83
2022/03/13 05:21:36;;;;;;;32.63;22.33;;;;;;;7.68;72.81;101346.34;4935256;29;20058;-83
2022/03/13 05:24:02;;;;;;;31.63;21.50;;;;;;;7.65;73.09;101344.72;4935404;29;20020;-82
2022/03/13 05:26:28;;;;;;;34.97;21.67;;;;;;;7.61;72.33;101337.22;4935218;29;20083;-80
2022/03/13 05:28:53;;;;;;;33.53;20.70;;;;;;;7.55;72.54;101340.03;4935172;29;20103;-79
2022/03/13 05:31:18;;;;;;;31.02;20.75;;;;;;;7.57;72.33;101343.38;4935406;29;20154;-83
2022/03/13 05:33:44;;;;;;;33.88;21.00;;;;;;;7.48;71.65;101332.59;4935396;29;20055;-83
2022/03/13 05:36:09;;;;;;;35.88;21.13;;;;;;;7.46;71.92;101326.66;4935587;28;20062;-83
2022/03/13 05:38:35;;;;;;;33.88;20.95;;;;;;;7.54;72.26;101346.91;4935328;29;20030;-83
2022/03/13 05:41:06;;;;;;;30.98;20.40;;;;;;;7.56;72.23;101342.53;4934883;29;20087;-85
2022/03/13 05:43:32;;;;;;;33.60;21.45;;;;;;;7.53;72.28;101344.41;4935065;29;20030;-84
2022/03/13 05:45:58;;;;;;;33.63;21.05;;;;;;;7.33;71.67;101314.41;4934996;28;20074;-84
2022/03/13 05:48:25;;;;;;;37.13;20.95;;;;;;;7.55;71.17;101356.28;4935234;28;20493;-85
2022/03/13 05:50:51;;;;;;;34.33;20.52;;;;;;;7.53;71.53;101350.38;4935187;29;20362;-84
2022/03/13 05:53:17;;;;;;;36.67;21.30;;;;;;;7.41;71.46;101338.03;4935121;28;20042;-83
2022/03/13 05:55:43;;;;;;;36.15;20.98;;;;;;;7.55;71.16;101352.88;4934991;29;20034;-84
2022/03/13 05:58:08;;;;;;;34.25;21.42;;;;;;;7.55;70.83;101360.59;4937618;29;20040;-81
2022/03/13 06:00:34;;;;;;;33.25;20.83;;;;;;;7.53;71.74;101363.22;4938436;29;20063;-84
2022/03/13 06:03:00;;;;;;;35.20;21.08;;;;;;;7.52;70.64;101363.28;4938874;28;20040;-83
2022/03/13 06:05:26;;;;;;;32.40;20.10;;;;;;;7.37;71.04;101341.63;4938930;28;20028;-82
2022/03/13 06:07:52;;;;;;;30.33;19.05;;;;;;;7.54;71.24;101364.06;4938649;28;20054;-81
2022/03/13 06:10:18;;;;;;;32.70;20.13;;;;;;;7.33;70.90;101335.78;4938282;29;20554;-79
2022/03/13 06:12:46;;;;;;;30.35;19.55;;;;;;;7.38;70.84;101341.59;4938495;28;20023;-78
2022/03/13 06:15:12;;;;;;;34.22;20.42;;;;;;;7.49;70.64;101354.00;4938304;29;20032;-77
2022/03/13 06:17:40;;;;;;;33.80;19.77;;;;;;;7.54;71.22;101361.50;4938495;29;20034;-78
2022/03/13 06:20:13;;;;;;;44.05;20.88;;;;;;;7.52;70.74;101371.84;4938366;29;20019;-83
2022/03/13 06:22:40;;;;;;;30.40;19.70;;;;;;;7.48;70.43;101357.47;4938251;28;20036;-83
2022/03/13 06:25:07;;;;;;;31.30;19.85;;;;;;;7.40;70.64;101346.66;4938355;29;20027;-84
2022/03/13 06:27:33;;;;;;;31.80;19.48;;;;;;;7.50;70.39;101363.38;4938187;29;20024;-82
2022/03/13 06:30:00;;;;;;;32.10;19.65;;;;;;;7.55;69.94;101369.13;4937953;29;20035;-83
2022/03/13 06:32:29;;;;;;;33.10;19.75;;;;;;;7.57;70.79;101369.94;4938416;29;20024;-78
2022/03/13 06:34:54;;;;;;;30.95;20.23;;;;;;;7.59;70.19;101369.88;4938152;29;20034;-83
2022/03/13 06:37:20;;;;;;;30.90;20.08;;;;;;;7.60;70.88;101367.22;4938029;29;20023;-81
2022/03/13 06:39:45;;;;;;;28.48;18.42;;;;;;;7.39;69.44;101345.00;4938004;29;20032;-79
2022/03/13 06:42:10;;;;;;;32.00;18.67;;;;;;;7.62;69.38;101372.28;4938157;29;20032;-78
2022/03/13 06:44:36;;;;;;;30.50;19.33;;;;;;;7.60;69.62;101359.50;4937743;29;20473;-79
2022/03/13 06:47:02;;;;;;;28.75;18.55;;;;;;;7.60;69.46;101363.81;4937748;29;20055;-76
2022/03/13 06:49:27;;;;;;;31.80;19.77;;;;;;;7.59;69.56;101370.69;4937971;29;20162;-81
2022/03/13 06:51:53;;;;;;;33.72;19.70;;;;;;;7.56;69.24;101369.97;4937596;29;20504;-81
2022/03/13 06:54:18;;;;;;;32.13;20.63;;;;;;;7.39;69.53;101335.56;4937748;29;20118;-81
2022/03/13 06:56:44;;;;;;;31.15;18.92;;;;;;;7.43;69.97;101336.25;4937533;28;20044;-77
2022/03/13 06:59:09;;;;;;;33.40;20.05;;;;;;;7.61;69.96;101366.31;4937618;29;20044;-76
2022/03/13 07:01:38;;;;;;;31.45;18.67;;;;;;;7.61;69.92;101366.31;4937424;29;20074;-79
2022/03/13 07:04:04;;;;;;;31.83;19.70;;;;;;;7.56;70.41;101341.69;4937446;29;20035;-79
2022/03/13 07:06:33;;;;;;;29.02;19.40;;;;;;;7.76;69.91;101368.22;4937581;28;20028;-76
2022/03/13 07:08:59;;;;;;;28.75;18.80;;;;;;;7.84;69.75;101365.34;4937213;29;20028;-77
2022/03/13 07:11:26;;;;;;;36.33;19.10;;;;;;;7.89;69.83;101366.00;4937642;29;20068;-78
2022/03/13 07:13:51;;;;;;;29.88;18.85;;;;;;;7.96;69.14;101362.25;4937323;29;20034;-81
2022/03/13 07:16:18;;;;;;;32.90;20.13;;;;;;;7.83;68.97;101330.25;4937404;29;20098;-77
2022/03/13 07:18:43;;;;;;;32.60;20.08;;;;;;;8.02;68.85;101351.69;4937131;29;20031;-81
2022/03/13 07:21:10;;;;;;;28.92;19.50;;;;;;;8.19;68.37;101366.38;4937311;29;20397;-82
2022/03/13 07:23:36;;;;;;;32.85;18.98;;;;;;;8.25;67.77;101366.09;4937237;28;20028;-83
2022/03/13 07:26:01;;;;;;;28.95;18.58;;;;;;;8.30;67.40;101361.59;4937362;28;20034;-83
2022/03/13 07:28:27;;;;;;;30.30;18.48;;;;;;;8.34;67.59;101360.56;4936879;28;20023;-86
2022/03/13 07:30:52;;;;;;;31.27;20.08;;;;;;;8.45;66.58;101372.09;4936852;29;20059;-83
2022/03/13 07:33:18;;;;;;;34.38;19.52;;;;;;;8.50;66.95;101372.75;4937229;29;20036;-81
2022/03/13 07:35:44;;;;;;;30.05;20.02;;;;;;;8.51;67.25;101372.69;4937072;29;20036;-82
2022/03/13 07:38:10;;;;;;;31.15;19.00;;;;;;;8.53;66.95;101360.56;4937207;29;20034;-83
2022/03/13 07:40:35;;;;;;;30.90;20.48;;;;;;;8.59;67.65;101365.44;4936816;29;20024;-85
2022/03/13 07:43:01;;;;;;;35.42;20.23;;;;;;;8.54;68.72;101340.81;4936844;28;20421;-84
2022/03/13 07:45:27;;;;;;;31.27;19.95;;;;;;;8.74;67.94;101358.72;4936959;28;20035;-83
2022/03/13 07:47:57;;;;;;;34.33;20.65;;;;;;;8.81;67.71;101356.72;4951287;28;20023;-84
2022/03/13 07:50:23;;;;;;;28.90;18.98;;;;;;;8.67;66.97;101326.47;4936706;29;20038;-80
2022/03/13 07:52:49;;;;;;;30.98;20.42;;;;;;;8.76;66.90;101326.03;4936658;29;20063;-84
2022/03/13 07:55:14;;;;;;;32.20;20.30;;;;;;;8.91;66.09;101356.19;4936743;29;20751;-82
2022/03/13 07:57:43;;;;;;;28.98;19.15;;;;;;;8.87;66.25;101349.53;4939501;29;20126;-82
2022/03/13 08:00:12;;;;;;;28.83;19.50;;;;;;;8.87;66.04;101356.44;4936613;29;20078;-81
2022/03/13 08:02:38;;;;;;;28.80;20.42;;;;;;;8.90;66.30;101358.84;4936496;29;20039;-81
2022/03/13 08:05:03;;;;;;;32.33;20.92;;;;;;;8.78;66.05;101342.25;4936480;29;20030;-83
2022/03/13 08:07:29;;;;;;;31.05;20.65;;;;;;;8.80;66.04;101339.59;4936372;29;20469;-83
2022/03/13 08:09:54;;;;;;;31.80;20.48;;;;;;;8.93;66.14;101360.44;4967231;28;20027;-77
2022/03/13 08:12:20;;;;;;;30.40;20.42;;;;;;;8.70;65.83;101321.16;4936475;29;20064;-74
2022/03/13 08:14:50;;;;;;;30.08;20.73;;;;;;;8.97;65.66;101362.81;4935357;29;20042;-82
2022/03/13 08:17:15;;;;;;;31.88;21.10;;;;;;;8.94;65.70;101352.63;4936254;29;20032;-84
2022/03/13 08:19:41;;;;;;;29.60;20.00;;;;;;;8.83;65.11;101321.41;4966740;28;20035;-82
2022/03/13 08:22:06;;;;;;;28.52;19.55;;;;;;;8.97;64.25;101343.94;4936257;29;20067;-84
2022/03/13 08:24:32;;;;;;;30.58;20.88;;;;;;;8.98;63.59;101327.59;4936023;29;20473;-84
2022/03/13 08:26:58;;;;;;;30.92;20.58;;;;;;;9.16;63.37;101353.28;4935962;28;20077;-84
2022/03/13 08:29:23;;;;;;;29.52;19.65;;;;;;;9.26;62.59;101352.84;4935827;29;20027;-74
2022/03/13 08:31:48;;;;;;;32.58;20.48;;;;;;;9.36;62.35;101359.22;4934671;28;20071;-77
2022/03/13 08:34:14;;;;;;;29.63;19.13;;;;;;;9.35;61.50;101336.94;4936099;28;20024;-76
2022/03/13 08:36:43;;;;;;;32.17;19.35;;;;;;;9.55;61.41;101359.97;4936148;28;20034;-76
2022/03/13 08:39:09;;;;;;;28.67;20.10;;;;;;;9.58;60.85;101353.81;4935809;29;20024;-76
2022/03/13 08:41:35;;;;;;;28.83;19.58;;;;;;;9.46;60.52;101324.34;4935849;28;20038;-75
2022/03/13 08:44:03;;;;;;;31.67;19.17;;;;;;;9.87;60.89;101355.75;4935646;28;20393;-74
2022/03/13 08:46:29;;;;;;;29.17;19.50;;;;;;;9.91;59.77;101338.34;4935559;28;20429;-77
2022/03/13 08:48:54;;;;;;;33.75;19.40;;;;;;;10.17;59.35;101357.66;4935629;28;20031;-82
2022/03/13 08:51:23;;;;;;;29.65;19.13;;;;;;;9.79;58.19;101280.50;4935726;29;20059;-84
2022/03/13 08:53:49;;;;;;;34.60;19.15;;;;;;;10.37;57.81;101356.63;4950398;28;20456;-81
2022/03/13 08:56:15;;;;;;;27.45;17.98;;;;;;;10.24;57.82;101325.47;4935387;29;20115;-79
2022/03/13 08:58:42;;;;;;;29.80;19.17;;;;;;;10.54;57.40;101352.22;4950922;28;20113;-78
2022/03/13 09:01:08;;;;;;;30.88;20.38;;;;;;;10.55;57.24;101322.06;4954284;28;20031;-83
2022/03/13 09:03:34;;;;;;;30.23;19.58;;;;;;;10.69;56.24;101339.38;4954390;29;20042;-77
2022/03/13 09:05:59;;;;;;;28.60;19.08;;;;;;;10.65;56.51;101306.88;4954226;28;20023;-77
2022/03/13 09:08:25;;;;;;;31.25;19.52;;;;;;;10.76;56.48;101320.03;4954441;29;20539;-80
2022/03/13 09:10:51;;;;;;;32.13;19.88;;;;;;;10.95;55.94;101336.19;4954239;29;20027;-82
2022/03/13 09:13:17;;;;;;;28.63;19.15;;;;;;;10.80;55.52;101306.84;4969110;28;20040;-77
2022/03/13 09:15:42;;;;;;;33.75;20.00;;;;;;;11.00;55.98;101336.72;4954229;28;20143;-80
2022/03/13 09:18:07;;;;;;;29.42;19.27;;;;;;;10.94;56.23;101319.00;4954073;28;20039;-81
2022/03/13 09:20:33;;;;;;;31.27;20.65;;;;;;;11.11;55.14;101330.94;4954055;28;20491;-81
2022/03/13 09:22:58;;;;;;;30.90;20.33;;;;;;;11.01;55.30;101317.75;4954365;29;20027;-76
2022/03/13 09:25:23;;;;;;;32.78;20.52;;;;;;;11.15;55.77;101335.88;4954123;28;20027;-77
2022/03/13 09:27:49;;;;;;;31.90;20.65;;;;;;;10.90;54.84;101289.06;4954220;29;20476;-78
2022/03/13 09:30:15;;;;;;;35.63;20.88;;;;;;;11.06;55.05;101318.31;4954332;28;20034;-81
2022/03/13 09:32:41;;;;;;;35.03;21.60;;;;;;;11.16;54.84;101326.38;4957762;28;20023;-80
2022/03/13 09:35:11;;;;;;;30.98;19.75;;;;;;;11.06;55.00;101304.56;4958087;29;20059;-79
2022/03/13 09:37:39;;;;;;;33.20;19.55;;;;;;;11.29;55.13;101329.91;4957908;28;20042;-79
2022/03/13 09:40:05;;;;;;;34.08;21.27;;;;;;;11.29;55.70;101324.72;4972576;28;20070;-77
2022/03/13 09:42:31;;;;;;;31.23;20.48;;;;;;;11.32;54.58;101324.56;4972663;28;20031;-81
2022/03/13 09:44:59;;;;;;;30.67;19.98;;;;;;;11.34;55.53;101329.66;4957880;29;20534;-82
2022/03/13 09:47:25;;;;;;;30.95;20.75;;;;;;;11.17;54.81;101304.75;4957724;28;20039;-84
2022/03/13 09:49:51;;;;;;;32.67;21.05;;;;;;;11.03;55.81;101279.72;4957878;28;20114;-78
2022/03/13 09:52:42;;;;;;;34.17;21.80;;;;;;;10.85;56.23;101239.44;4957836;28;20059;-81
2022/03/13 09:55:10;;;;;;;32.67;21.85;;;;;;;11.54;57.07;101334.47;4957727;29;20039;-82
2022/03/13 09:57:37;;;;;;;30.17;20.05;;;;;;;11.53;55.71;101311.31;4957352;28;20097;-82
2022/03/13 10:00:05;;;;;;;29.05;19.10;;;;;;;11.71;55.20;101320.56;4957354;28;20031;-82
2022/03/13 10:02:37;;;;;;;29.85;18.17;;;;;;;11.94;55.98;101330.38;4957239;28;20484;-79
2022/03/13 10:05:11;;;;;;;31.95;19.13;;;;;;;11.96;55.05;101317.34;4957877;28;20028;-79
2022/03/13 10:07:49;;;;;;;29.50;19.55;;;;;;;12.08;54.41;101329.53;4957265;29;20457;-77
2022/03/13 10:10:14;;;;;;;29.33;19.13;;;;;;;12.07;54.80;101312.34;4957464;28;20035;-79
2022/03/13 10:12:40;;;;;;;28.48;19.05;;;;;;;12.12;54.51;101319.84;4957065;29;20058;-79
2022/03/13 10:15:08;;;;;;;28.02;18.25;;;;;;;12.16;54.03;101316.94;4957835;28;20369;-81
2022/03/13 10:17:37;;;;;;;24.52;17.50;;;;;;;12.03;54.50;101296.16;4939917;29;20043;-83
2022/03/13 10:20:35;;;;;;;27.67;18.20;;;;;;;12.14;54.98;101307.63;4956940;28;20392;-79
2022/03/13 10:23:00;;;;;;;26.13;17.30;;;;;;;12.14;54.27;101300.69;4957025;28;20031;-77
2022/03/13 10:25:45;;;;;;;26.45;17.67;;;;;;;12.21;54.30;101303.72;4972296;28;20035;-80
2022/03/13 10:28:28;;;;;;;28.38;18.17;;;;;;;12.27;54.57;101303.34;4972197;28;20050;-77
2022/03/13 10:31:00;;;;;;;28.85;18.15;;;;;;;12.38;54.27;101300.06;4957004;29;20031;-79
2022/03/13 10:33:52;;;;;;;25.45;17.30;;;;;;;12.51;54.37;101303.56;4956631;28;20031;-79
2022/03/13 10:36:45;;;;;;;27.52;17.13;;;;;;;12.65;54.47;101293.13;4956827;28;20027;-77
2022/03/13 10:39:18;;;;;;;27.75;17.80;;;;;;;12.71;53.27;101292.75;4935639;29;20126;-80
2022/03/13 10:41:44;;;;;;;26.92;17.80;;;;;;;12.55;52.88;101246.25;4935376;29;20409;-77
2022/03/13 10:44:36;;;;;;;26.02;17.75;;;;;;;12.56;53.68;101247.09;4934792;29;20050;-77
2022/03/13 10:47:08;;;;;;;27.45;17.15;;;;;;;12.85;53.08;101284.06;4935455;29;20032;-79
2022/03/13 10:49:42;;;;;;;28.20;18.05;;;;;;;12.58;52.29;101240.88;4935179;29;20035;-80
2022/03/13 10:52:26;;;;;;;26.02;17.83;;;;;;;12.90;53.38;101280.28;4919545;29;20039;-75
2022/03/13 10:54:56;;;;;;;27.10;17.40;;;;;;;12.87;52.41;101274.44;4935420;29;20453;-75
2022/03/13 10:57:22;;;;;;;23.75;16.98;;;;;;;12.83;52.41;101263.44;4935287;29;20039;-75
2022/03/13 11:00:08;;;;;;;23.50;16.48;;;;;;;12.68;52.08;101241.09;4935371;29;20572;-71
2022/03/13 11:02:33;;;;;;;24.02;15.60;;;;;;;12.75;52.13;101242.38;4935383;29;20107;-75
2022/03/13 11:05:00;;;;;;;22.77;15.60;;;;;;;12.88;52.49;101263.13;4934756;29;20069;-75
2022/03/13 11:07:27;;;;;;;26.48;16.42;;;;;;;13.14;51.96;101280.41;4918878;29;20134;-75
2022/03/13 11:09:54;;;;;;;22.63;16.20;;;;;;;13.14;52.51;101257.06;4935182;29;20040;-76
2022/03/13 11:12:20;;;;;;;22.17;14.98;;;;;;;13.10;51.71;101232.28;4934995;29;20040;-75
2022/03/13 11:14:49;;;;;;;23.08;15.18;;;;;;;13.45;52.36;101265.41;4935221;29;20036;-75